createdAt,value
2023-05-10T00:00:58.703Z,1.30
2023-05-10T00:06:00.378Z,0.50
2023-05-10T00:11:01.897Z,0.32
2023-05-10T00:16:03.466Z,0.60
2023-05-10T00:21:05.428Z,0.10
2023-05-10T00:26:06.764Z,0.20
2023-05-10T00:31:08.268Z,0.10
2023-05-10T00:36:09.817Z,0.10
2023-05-10T00:41:11.205Z,0.20
2023-05-10T00:46:13.177Z,0.20
2023-05-10T00:51:14.923Z,0.20
2023-05-10T00:56:16.968Z,0.20
2023-05-10T01:01:18.424Z,0.20
2023-05-10T01:06:19.844Z,0.17
2023-05-10T01:11:21.897Z,0.15
2023-05-10T01:16:24.508Z,0.10
2023-05-10T01:21:39.208Z,0.10
2023-05-10T01:26:55.222Z,0.17
2023-05-10T01:32:04.440Z,0.40
2023-05-10T01:37:11.802Z,0.40
2023-05-10T01:42:20.832Z,0.30
2023-05-10T01:47:36.426Z,1.02
2023-05-10T01:52:42.079Z,0.30
2023-05-10T01:57:45.510Z,0.50
2023-05-10T02:02:52.865Z,0.50
2023-05-10T02:07:55.092Z,0.40
2023-05-10T02:12:59.794Z,0.68
2023-05-10T02:18:04.749Z,0.60
2023-05-10T02:23:08.195Z,0.70
2023-05-10T02:28:11.402Z,0.70
2023-05-10T02:33:13.061Z,0.63
2023-05-10T02:38:15.707Z,0.70
2023-05-10T02:43:18.940Z,0.70
2023-05-10T02:48:20.450Z,0.63
2023-05-10T02:53:34.306Z,0.40
2023-05-10T02:58:36.440Z,0.50
2023-05-10T03:03:37.798Z,0.57
2023-05-10T03:08:39.465Z,0.50
2023-05-10T03:13:50.790Z,0.80
2023-05-10T03:19:02.382Z,0.50
2023-05-10T03:24:09.071Z,0.50
2023-05-10T03:29:11.473Z,0.65
2023-05-10T03:34:12.919Z,0.60
2023-05-10T03:39:14.295Z,0.60
2023-05-10T03:44:15.782Z,0.80
2023-05-10T03:49:17.239Z,0.80
2023-05-10T03:54:18.640Z,0.60
2023-05-10T03:59:20.195Z,1.58
2023-05-10T04:04:22.439Z,1.05
2023-05-10T04:09:23.805Z,1.23
2023-05-10T04:14:25.512Z,0.93
2023-05-10T04:19:33.128Z,1.27
2023-05-10T04:24:34.485Z,1.30
2023-05-10T04:29:35.853Z,1.02
2023-05-10T04:34:38.159Z,1.13
2023-05-10T04:39:42.005Z,1.08
2023-05-10T04:44:43.729Z,0.80
2023-05-10T04:49:45.099Z,1.95
2023-05-10T04:54:46.551Z,1.20
2023-05-10T04:59:50.265Z,0.90
2023-05-10T05:04:52.075Z,0.88
2023-05-10T05:09:53.419Z,0.93
2023-05-10T05:14:54.786Z,1.02
2023-05-10T05:19:56.643Z,0.80
2023-05-10T05:24:59.201Z,1.02
2023-05-10T05:30:00.648Z,1.38
2023-05-10T05:35:02.194Z,1.10
2023-05-10T05:40:04.308Z,1.50
2023-05-10T05:45:06.546Z,1.35
2023-05-10T05:50:08.269Z,1.67
2023-05-10T05:55:09.641Z,1.60
2023-05-10T06:00:11.422Z,1.70
2023-05-10T06:05:12.840Z,1.60
2023-05-10T06:10:14.200Z,1.92
2023-05-10T06:15:15.986Z,1.45
2023-05-10T06:20:17.636Z,4.22
2023-05-10T06:25:19.342Z,2.03
2023-05-10T06:30:21.162Z,2.22
2023-05-10T06:35:22.830Z,2.05
2023-05-10T06:40:24.188Z,1.85
2023-05-10T06:45:25.562Z,1.60
2023-05-10T06:50:26.979Z,2.00
2023-05-10T06:55:28.903Z,1.27
2023-05-10T07:00:30.471Z,1.05
2023-05-10T07:05:32.352Z,1.20
2023-05-10T07:10:33.904Z,2.25
2023-05-10T07:15:35.222Z,1.17
2023-05-10T07:20:36.579Z,1.25
2023-05-10T07:25:38.545Z,1.23
2023-05-10T07:30:39.976Z,1.45
2023-05-10T07:35:41.547Z,1.10
2023-05-10T07:40:43.110Z,1.27
2023-05-10T07:45:44.554Z,1.45
2023-05-10T07:50:45.886Z,1.30
2023-05-10T07:55:57.824Z,1.20
2023-05-10T08:00:59.182Z,1.00
2023-05-10T08:06:00.571Z,1.20
2023-05-10T08:11:01.982Z,0.93
2023-05-10T08:16:03.472Z,2.05
2023-05-10T08:21:05.159Z,1.73
2023-05-10T08:26:06.586Z,1.17
2023-05-10T08:31:08.000Z,1.05
2023-05-10T08:36:09.638Z,0.88
2023-05-10T08:41:11.958Z,0.80
2023-05-10T08:46:18.276Z,0.73
2023-05-10T08:51:23.209Z,1.17
2023-05-10T08:56:25.044Z,1.92
2023-05-10T09:01:28.775Z,0.80
2023-05-10T09:06:30.723Z,0.90
2023-05-10T09:11:32.430Z,0.75
2023-05-10T09:16:33.849Z,0.90
2023-05-10T09:21:39.721Z,0.95
2023-05-10T09:26:49.246Z,0.63
2023-05-10T09:31:56.167Z,0.73
2023-05-10T09:37:01.563Z,1.15
2023-05-10T09:42:08.506Z,1.20
2023-05-10T09:47:12.849Z,0.73
2023-05-10T09:52:14.347Z,0.82
2023-05-10T09:57:23.043Z,0.70
2023-05-10T10:02:30.264Z,0.60
2023-05-10T10:07:32.619Z,1.63
2023-05-10T10:12:34.579Z,0.63
2023-05-10T10:17:39.470Z,0.50
2023-05-10T10:22:41.080Z,0.63
2023-05-10T10:27:54.313Z,0.50
2023-05-10T10:33:32.967Z,0.60
2023-05-10T10:38:39.664Z,0.45
2023-05-10T10:43:41.036Z,0.50
2023-05-10T10:48:49.280Z,0.50
2023-05-10T10:53:50.718Z,0.60
2023-05-10T10:58:54.143Z,0.98
2023-05-10T11:04:19.458Z,0.47
2023-05-10T11:09:25.597Z,0.50
2023-05-10T11:14:26.992Z,0.63
2023-05-10T11:19:28.983Z,0.60
2023-05-10T11:24:30.480Z,0.43
2023-05-10T11:29:31.870Z,0.40
2023-05-10T11:34:36.114Z,0.40
2023-05-10T11:39:37.851Z,0.47
2023-05-10T11:44:39.260Z,0.40
2023-05-10T11:49:44.763Z,0.30
2023-05-10T11:54:55.698Z,0.30
2023-05-10T11:59:58.341Z,0.40
2023-05-10T12:04:59.959Z,0.20
2023-05-10T12:10:16.219Z,0.20
2023-05-10T12:15:20.670Z,0.10
2023-05-10T12:20:23.864Z,0.20
2023-05-10T12:25:31.408Z,0.20
2023-05-10T12:30:34.181Z,0.10
2023-05-10T12:35:45.573Z,0.15
2023-05-10T12:40:46.930Z,0.30
2023-05-10T12:45:49.654Z,0.10
2023-05-10T12:50:51.449Z,0.10
2023-05-10T12:55:52.900Z,0.20
2023-05-10T13:00:54.748Z,0.20
2023-05-10T13:05:56.144Z,0.20
2023-05-10T13:10:57.494Z,0.10
2023-05-10T13:15:58.818Z,0.08
2023-05-10T13:21:00.264Z,0.13
2023-05-10T13:26:01.600Z,0.03
2023-05-10T13:31:02.950Z,0.10
2023-05-10T13:36:04.634Z,0.20
2023-05-10T13:41:05.962Z,0.10
2023-05-10T13:46:07.353Z,0.10
2023-05-10T13:51:08.850Z,0.20
2023-05-10T13:56:10.248Z,0.10
2023-05-10T14:01:12.900Z,0.10
2023-05-10T14:06:14.545Z,0.13
2023-05-10T14:11:16.190Z,0.10
2023-05-10T14:16:17.608Z,0.13
2023-05-10T14:21:19.012Z,0.10
2023-05-10T14:26:21.606Z,0.82
2023-05-10T14:31:25.458Z,0.20
2023-05-10T14:36:26.928Z,0.10
2023-05-10T14:41:28.518Z,0.10
2023-05-10T14:46:30.802Z,0.10
2023-05-10T14:51:32.621Z,0.10
2023-05-10T14:56:34.052Z,0.03
2023-05-10T15:01:38.301Z,0.10
2023-05-10T15:06:40.116Z,0.10
2023-05-10T15:11:41.440Z,0.10
2023-05-10T15:16:42.857Z,0.10
2023-05-10T15:21:45.454Z,0.10
2023-05-10T15:26:46.881Z,0.10
2023-05-10T15:31:49.019Z,0.10
2023-05-10T15:36:50.430Z,0.10
2023-05-10T15:41:51.963Z,0.13
2023-05-10T15:46:53.343Z,0.60
2023-05-10T15:51:54.726Z,0.30
2023-05-10T15:56:56.207Z,0.10
2023-05-10T16:01:57.609Z,0.00
2023-05-10T16:06:58.997Z,0.10
2023-05-10T16:12:00.402Z,0.10
2023-05-10T16:17:03.147Z,0.52
2023-05-10T16:22:05.054Z,0.10
2023-05-10T16:27:06.971Z,0.10
2023-05-10T16:32:08.306Z,0.20
2023-05-10T16:37:09.864Z,0.10
2023-05-10T16:42:11.210Z,0.32
2023-05-10T16:47:12.567Z,0.10
2023-05-10T16:52:13.916Z,0.10
2023-05-10T16:57:15.321Z,0.13
2023-05-10T17:02:16.852Z,0.10
2023-05-10T17:07:18.973Z,0.75
2023-05-10T17:12:20.392Z,0.65
2023-05-10T17:17:21.914Z,0.30
2023-05-10T17:22:23.331Z,0.40
2023-05-10T17:27:24.690Z,0.15
2023-05-10T17:32:26.177Z,0.30
2023-05-10T17:37:27.642Z,0.20
2023-05-10T17:42:28.994Z,0.20
2023-05-10T17:47:31.337Z,0.30
2023-05-10T17:52:33.668Z,0.20
2023-05-10T17:57:37.915Z,0.20
2023-05-10T18:02:39.267Z,0.20
2023-05-10T18:07:40.618Z,0.20
2023-05-10T18:12:42.063Z,0.15
2023-05-10T18:17:43.432Z,0.20
2023-05-10T18:22:44.787Z,0.15
2023-05-10T18:27:46.137Z,0.20
2023-05-10T18:32:47.662Z,0.20
2023-05-10T18:37:49.083Z,0.20
2023-05-10T18:42:50.552Z,0.30
2023-05-10T18:47:51.906Z,0.40
2023-05-10T18:52:53.632Z,0.30
2023-05-10T18:57:55.080Z,0.30
2023-05-10T19:02:56.553Z,0.28
2023-05-10T19:07:57.939Z,0.30
2023-05-10T19:12:59.279Z,0.20
2023-05-10T19:18:00.718Z,0.13
2023-05-10T19:28:10.329Z,0.50
2023-05-10T19:33:12.531Z,0.40
2023-05-10T19:38:13.993Z,0.70
2023-05-10T19:43:15.996Z,0.50
2023-05-10T19:48:17.500Z,1.42
2023-05-10T19:53:18.907Z,1.08
2023-05-10T19:58:20.253Z,0.60
2023-05-10T20:03:21.623Z,0.50
2023-05-10T20:08:22.976Z,0.82
2023-05-10T20:13:24.922Z,0.30
2023-05-10T20:18:26.808Z,1.13
2023-05-10T20:23:28.182Z,0.47
2023-05-10T20:28:29.810Z,0.60
2023-05-10T20:33:31.245Z,0.50
2023-05-10T20:38:32.655Z,0.50
2023-05-10T20:43:34.059Z,0.50
2023-05-10T20:48:35.502Z,0.52
2023-05-10T20:53:36.891Z,0.68
2023-05-10T20:58:38.364Z,0.60
2023-05-10T21:03:39.719Z,0.80
2023-05-10T21:08:41.059Z,1.13
2023-05-10T21:13:42.415Z,0.80
2023-05-10T21:18:43.827Z,1.38
2023-05-10T21:23:48.338Z,0.68
2023-05-10T21:28:49.738Z,0.88
2023-05-10T21:33:51.402Z,1.10
2023-05-10T21:38:52.816Z,1.48
2023-05-10T21:43:54.203Z,2.03
2023-05-10T21:48:55.548Z,0.85
2023-05-10T21:53:56.972Z,0.90
2023-05-10T21:58:58.303Z,1.05
2023-05-10T22:03:59.968Z,1.23
2023-05-10T22:09:01.411Z,1.90
2023-05-10T22:14:02.830Z,1.35
2023-05-10T22:19:04.371Z,1.00
2023-05-10T22:24:05.998Z,0.90
2023-05-10T22:29:07.375Z,0.90
2023-05-10T22:34:08.747Z,1.35
2023-05-10T22:39:10.104Z,0.80
2023-05-10T22:44:11.414Z,1.30
2023-05-10T22:49:13.254Z,1.08
2023-05-10T22:54:14.665Z,1.27
2023-05-10T22:59:16.483Z,1.05
2023-05-10T23:04:17.948Z,1.13
2023-05-10T23:09:19.310Z,1.10
2023-05-10T23:14:20.629Z,1.00
2023-05-10T23:19:21.948Z,0.80
2023-05-10T23:24:23.321Z,1.20
2023-05-10T23:29:26.183Z,0.90
2023-05-10T23:34:27.538Z,1.00
2023-05-10T23:39:28.916Z,1.75
2023-05-10T23:44:30.323Z,0.70
2023-05-10T23:49:31.640Z,1.73
2023-05-10T23:54:33.214Z,0.93
2023-05-10T23:59:34.526Z,1.10
